createdAt,value
2022-08-28T00:00:37.829Z,92.25
2022-08-28T00:03:05.765Z,93.79
2022-08-28T00:05:33.133Z,94.42
2022-08-28T00:08:00.458Z,94.55
2022-08-28T00:10:27.871Z,94.54
2022-08-28T00:12:58.237Z,95.34
2022-08-28T00:15:34.059Z,93.67
2022-08-28T00:18:01.208Z,94.75
2022-08-28T00:20:28.757Z,92.55
2022-08-28T00:22:56.427Z,94.12
2022-08-28T00:25:26.215Z,94.28
2022-08-28T00:27:57.363Z,93.23
2022-08-28T00:30:32.142Z,94.91
2022-08-28T00:33:06.501Z,94.21
2022-08-28T00:35:33.577Z,92.09
2022-08-28T00:38:00.931Z,92.89
2022-08-28T00:40:32.892Z,94.87
2022-08-28T00:43:04.453Z,94.97
2022-08-28T00:45:38.714Z,95.14
2022-08-28T00:48:06.519Z,95.52
2022-08-28T00:50:56.758Z,96.02
2022-08-28T00:53:29.914Z,96.89
2022-08-28T00:56:00.050Z,96.73
2022-08-28T00:58:26.750Z,95.91
2022-08-28T01:00:53.384Z,95.55
2022-08-28T01:03:20.030Z,97.86
2022-08-28T01:05:51.919Z,97.62
2022-08-28T01:08:18.720Z,97.90
2022-08-28T01:10:49.806Z,100.00
2022-08-28T01:13:18.130Z,99.85
2022-08-28T01:15:45.501Z,100.00
2022-08-28T01:18:16.257Z,100.00
2022-08-28T01:20:49.317Z,99.91
2022-08-28T01:23:45.806Z,99.78
2022-08-28T01:26:13.329Z,99.65
2022-08-28T01:28:40.893Z,100.00
2022-08-28T01:31:11.280Z,99.77
2022-08-28T01:33:39.314Z,100.00
2022-08-28T01:36:10.452Z,100.00
2022-08-28T01:38:38.993Z,100.00
2022-08-28T01:41:06.161Z,100.00
2022-08-28T01:43:32.969Z,100.00
2022-08-28T01:46:02.602Z,100.00
2022-08-28T01:48:31.528Z,100.00
2022-08-28T01:50:58.720Z,100.00
2022-08-28T01:53:32.711Z,100.00
2022-08-28T01:56:02.310Z,100.00
2022-08-28T01:58:36.061Z,100.00
2022-08-28T02:01:08.577Z,100.00
2022-08-28T02:03:35.281Z,100.00
2022-08-28T02:06:02.023Z,100.00
2022-08-28T02:08:28.661Z,100.00
2022-08-28T02:10:55.292Z,100.00
2022-08-28T02:13:22.382Z,100.00
2022-08-28T02:15:52.501Z,100.00
2022-08-28T02:18:19.223Z,100.00
2022-08-28T02:20:46.679Z,100.00
2022-08-28T02:23:13.956Z,100.00
2022-08-28T02:25:40.969Z,100.00
2022-08-28T02:28:09.193Z,100.00
2022-08-28T02:30:37.032Z,100.00
2022-08-28T02:33:04.274Z,100.00
2022-08-28T02:35:31.356Z,100.00
2022-08-28T02:37:58.658Z,100.00
2022-08-28T02:40:27.648Z,100.00
2022-08-28T02:42:54.395Z,100.00
2022-08-28T02:45:21.219Z,100.00
2022-08-28T02:47:48.186Z,100.00
2022-08-28T02:50:18.923Z,100.00
2022-08-28T02:52:46.539Z,100.00
2022-08-28T02:55:17.476Z,100.00
2022-08-28T02:57:44.913Z,100.00
2022-08-28T03:00:16.912Z,100.00
2022-08-28T03:02:45.826Z,100.00
2022-08-28T03:05:15.000Z,100.00
2022-08-28T03:07:42.717Z,100.00
2022-08-28T03:10:10.782Z,100.00
2022-08-28T03:12:38.286Z,100.00
2022-08-28T03:15:06.375Z,100.00
2022-08-28T03:17:33.311Z,100.00
2022-08-28T03:20:00.355Z,100.00
2022-08-28T03:22:45.839Z,100.00
2022-08-28T03:25:12.671Z,100.00
2022-08-28T03:27:39.821Z,100.00
2022-08-28T03:30:08.108Z,100.00
2022-08-28T03:32:35.112Z,100.00
2022-08-28T03:35:02.096Z,100.00
2022-08-28T03:37:28.838Z,100.00
2022-08-28T03:39:55.629Z,100.00
2022-08-28T03:42:22.733Z,100.00
2022-08-28T03:44:49.536Z,100.00
2022-08-28T03:47:16.665Z,100.00
2022-08-28T03:49:45.388Z,100.00
2022-08-28T03:52:12.760Z,100.00
2022-08-28T03:54:39.568Z,100.00
2022-08-28T03:57:07.216Z,100.00
2022-08-28T03:59:35.505Z,100.00
2022-08-28T04:02:02.232Z,100.00
2022-08-28T04:04:28.867Z,100.00
2022-08-28T04:06:55.523Z,100.00
2022-08-28T04:09:22.168Z,100.00
2022-08-28T04:11:48.849Z,100.00
2022-08-28T04:14:15.481Z,100.00
2022-08-28T04:16:42.366Z,100.00
2022-08-28T04:19:09.275Z,100.00
2022-08-28T04:21:35.927Z,100.00
2022-08-28T04:24:05.771Z,100.00
2022-08-28T04:26:36.738Z,100.00
2022-08-28T04:29:05.061Z,100.00
2022-08-28T04:31:32.837Z,100.00
2022-08-28T04:34:05.547Z,100.00
2022-08-28T04:36:33.935Z,100.00
2022-08-28T04:39:01.609Z,100.00
2022-08-28T04:41:29.050Z,100.00
2022-08-28T04:43:57.194Z,100.00
2022-08-28T04:46:25.031Z,100.00
2022-08-28T04:48:52.338Z,100.00
2022-08-28T04:51:20.648Z,100.00
2022-08-28T04:53:47.437Z,100.00
2022-08-28T04:56:15.363Z,100.00
2022-08-28T04:58:43.822Z,100.00
2022-08-28T05:01:18.806Z,100.00
2022-08-28T05:03:47.949Z,100.00
2022-08-28T05:06:16.318Z,100.00
2022-08-28T05:08:43.585Z,100.00
2022-08-28T05:11:32.828Z,100.00
2022-08-28T05:14:04.405Z,100.00
2022-08-28T05:16:31.898Z,100.00
2022-08-28T05:19:02.658Z,100.00
2022-08-28T05:21:29.332Z,100.00
2022-08-28T05:23:57.704Z,100.00
2022-08-28T05:26:27.145Z,100.00
2022-08-28T05:28:57.748Z,100.00
2022-08-28T05:31:26.024Z,100.00
2022-08-28T05:33:54.000Z,100.00
2022-08-28T05:36:23.394Z,100.00
2022-08-28T05:38:56.503Z,100.00
2022-08-28T05:41:25.903Z,100.00
2022-08-28T05:43:54.125Z,100.00
2022-08-28T05:46:22.456Z,100.00
2022-08-28T05:48:49.469Z,100.00
2022-08-28T05:51:20.253Z,100.00
2022-08-28T05:53:50.300Z,100.00
2022-08-28T05:56:22.005Z,100.00
2022-08-28T05:58:48.691Z,100.00
2022-08-28T06:01:15.406Z,100.00
2022-08-28T06:03:43.265Z,100.00
2022-08-28T06:06:10.558Z,100.00
2022-08-28T06:08:37.540Z,100.00
2022-08-28T06:11:05.290Z,100.00
2022-08-28T06:13:34.070Z,100.00
2022-08-28T06:16:01.093Z,100.00
2022-08-28T06:18:27.926Z,100.00
2022-08-28T06:20:55.427Z,100.00
2022-08-28T06:23:23.976Z,100.00
2022-08-28T06:25:51.479Z,100.00
2022-08-28T06:28:19.894Z,100.00
2022-08-28T06:31:02.929Z,100.00
2022-08-28T06:33:32.973Z,100.00
2022-08-28T06:35:59.507Z,100.00
2022-08-28T06:38:26.746Z,100.00
2022-08-28T06:40:55.191Z,100.00
2022-08-28T06:43:23.083Z,100.00
2022-08-28T06:45:51.673Z,100.00
2022-08-28T06:48:19.818Z,100.00
2022-08-28T06:50:47.688Z,100.00
2022-08-28T06:53:15.073Z,100.00
2022-08-28T06:55:42.444Z,100.00
2022-08-28T06:58:09.451Z,100.00
2022-08-28T07:00:36.728Z,100.00
2022-08-28T07:03:05.976Z,100.00
2022-08-28T07:05:34.034Z,100.00
2022-08-28T07:08:00.863Z,100.00
2022-08-28T07:10:31.373Z,100.00
2022-08-28T07:12:58.643Z,100.00
2022-08-28T07:15:25.146Z,100.00
2022-08-28T07:17:51.685Z,100.00
2022-08-28T07:20:18.310Z,100.00
2022-08-28T07:22:44.775Z,99.32
2022-08-28T07:25:11.351Z,96.89
2022-08-28T07:27:38.526Z,95.31
2022-08-28T07:30:06.384Z,94.32
2022-08-28T07:32:34.105Z,92.97
2022-08-28T07:35:01.207Z,92.45
2022-08-28T07:37:27.922Z,93.15
2022-08-28T07:39:54.520Z,91.40
2022-08-28T07:42:39.701Z,90.88
2022-08-28T07:45:06.748Z,89.32
2022-08-28T07:47:33.400Z,88.36
2022-08-28T07:50:01.570Z,91.54
2022-08-28T07:52:28.398Z,89.83
2022-08-28T07:54:55.613Z,89.41
2022-08-28T07:57:22.883Z,90.55
2022-08-28T07:59:50.106Z,88.73
2022-08-28T08:02:16.686Z,87.40
2022-08-28T08:04:43.250Z,88.15
2022-08-28T08:07:09.863Z,86.15
2022-08-28T08:09:37.447Z,84.73
2022-08-28T08:12:05.355Z,83.55
2022-08-28T08:14:32.099Z,82.08
2022-08-28T08:17:01.587Z,82.80
2022-08-28T08:19:28.398Z,82.92
2022-08-28T08:21:55.528Z,81.69
2022-08-28T08:24:25.835Z,81.30
2022-08-28T08:26:59.399Z,82.52
2022-08-28T08:29:27.403Z,84.26
2022-08-28T08:32:05.367Z,82.87
2022-08-28T08:34:33.672Z,80.57
2022-08-28T08:37:00.212Z,80.17
2022-08-28T08:39:26.793Z,81.34
2022-08-28T08:41:58.252Z,79.60
2022-08-28T08:44:40.383Z,79.95
2022-08-28T08:47:14.818Z,78.61
2022-08-28T08:49:44.015Z,80.40
2022-08-28T08:52:13.422Z,79.91
2022-08-28T08:54:43.969Z,77.15
2022-08-28T08:57:12.485Z,77.22
2022-08-28T08:59:40.026Z,76.98
2022-08-28T09:02:06.578Z,76.32
2022-08-28T09:04:40.231Z,79.02
2022-08-28T09:07:13.647Z,77.97
2022-08-28T09:09:50.931Z,78.29
2022-08-28T09:12:18.697Z,77.67
2022-08-28T09:14:45.235Z,78.24
2022-08-28T09:17:13.170Z,74.73
2022-08-28T09:19:39.692Z,72.31
2022-08-28T09:22:06.267Z,76.94
2022-08-28T09:24:34.043Z,75.05
2022-08-28T09:27:02.137Z,75.62
2022-08-28T09:29:36.219Z,75.17
2022-08-28T09:32:21.189Z,71.72
2022-08-28T09:34:59.857Z,71.95
2022-08-28T09:37:27.010Z,68.96
2022-08-28T09:40:12.421Z,68.33
2022-08-28T09:42:57.457Z,70.10
2022-08-28T09:45:25.509Z,69.08
2022-08-28T09:47:52.243Z,68.67
2022-08-28T09:50:23.600Z,69.60
2022-08-28T09:52:50.965Z,69.65
2022-08-28T09:55:25.680Z,67.54
2022-08-28T09:57:52.682Z,68.17
2022-08-28T10:00:19.179Z,69.99
2022-08-28T10:02:51.548Z,69.81
2022-08-28T10:05:24.252Z,66.99
2022-08-28T10:07:53.287Z,66.89
2022-08-28T10:10:41.840Z,65.46
2022-08-28T10:13:17.361Z,64.68
2022-08-28T10:15:43.914Z,65.86
2022-08-28T10:18:25.493Z,65.18
2022-08-28T10:20:54.955Z,62.83
2022-08-28T10:23:40.029Z,61.85
2022-08-28T10:26:25.458Z,63.02
2022-08-28T10:29:04.043Z,63.85
2022-08-28T10:31:37.411Z,62.25
2022-08-28T10:34:19.018Z,61.89
2022-08-28T10:36:53.127Z,60.29
2022-08-28T10:39:22.615Z,60.97
2022-08-28T10:41:51.114Z,62.30
2022-08-28T10:44:27.059Z,60.41
2022-08-28T10:46:55.915Z,58.59
2022-08-28T10:49:28.351Z,56.64
2022-08-28T10:52:13.419Z,58.97
2022-08-28T10:54:48.784Z,58.10
2022-08-28T10:57:31.611Z,58.03
2022-08-28T11:00:00.389Z,59.34
2022-08-28T11:02:28.159Z,56.97
2022-08-28T11:04:58.551Z,54.24
2022-08-28T11:07:30.960Z,55.77
2022-08-28T11:10:15.420Z,56.01
2022-08-28T11:12:43.298Z,54.36
2022-08-28T11:15:38.627Z,59.26
2022-08-28T11:18:10.916Z,56.07
2022-08-28T11:20:39.341Z,55.18
2022-08-28T11:23:17.252Z,55.52
2022-08-28T11:25:50.057Z,59.40
2022-08-28T11:28:28.099Z,57.53
2022-08-28T11:31:00.918Z,56.64
2022-08-28T11:33:33.211Z,54.25
2022-08-28T11:35:59.779Z,55.16
2022-08-28T11:38:49.701Z,55.86
2022-08-28T11:41:24.517Z,54.95
2022-08-28T11:44:09.448Z,57.33
2022-08-28T11:46:40.119Z,54.65
2022-08-28T11:49:26.280Z,53.79
2022-08-28T11:51:58.739Z,52.39
2022-08-28T11:55:00.681Z,51.18
2022-08-28T11:57:45.812Z,50.01
2022-08-28T12:00:31.160Z,55.23
2022-08-28T12:03:03.581Z,53.17
2022-08-28T12:05:33.305Z,48.74
2022-08-28T12:08:03.365Z,46.17
2022-08-28T12:10:34.569Z,45.29
2022-08-28T12:13:05.155Z,42.05
2022-08-28T12:15:32.237Z,46.86
2022-08-28T12:18:19.605Z,47.88
2022-08-28T12:20:48.953Z,43.96
2022-08-28T12:23:31.579Z,44.58
2022-08-28T12:26:06.590Z,41.49
2022-08-28T12:28:43.876Z,41.41
2022-08-28T12:31:13.518Z,40.86
2022-08-28T12:33:40.039Z,41.52
2022-08-28T12:36:11.289Z,42.86
2022-08-28T12:38:37.989Z,39.91
2022-08-28T12:41:04.466Z,38.47
2022-08-28T12:43:35.750Z,38.05
2022-08-28T12:46:19.971Z,39.67
2022-08-28T12:48:51.546Z,41.34
2022-08-28T12:51:22.623Z,41.93
2022-08-28T12:53:50.789Z,41.71
2022-08-28T12:56:18.887Z,42.02
2022-08-28T12:58:45.774Z,41.55
2022-08-28T13:01:12.503Z,43.94
2022-08-28T13:03:50.380Z,46.11
2022-08-28T13:06:23.681Z,45.28
2022-08-28T13:08:50.356Z,44.33
2022-08-28T13:11:20.207Z,42.49
2022-08-28T13:13:48.769Z,41.25
2022-08-28T13:16:33.821Z,41.19
2022-08-28T13:19:04.100Z,41.52
2022-08-28T13:21:35.050Z,39.74
2022-08-28T13:24:22.087Z,39.16
2022-08-28T13:27:09.375Z,40.33
2022-08-28T13:29:36.472Z,41.14
2022-08-28T13:32:05.123Z,40.13
2022-08-28T13:34:32.903Z,39.53
2022-08-28T13:37:00.903Z,40.31
2022-08-28T13:39:29.175Z,40.00
2022-08-28T13:41:57.711Z,38.40
2022-08-28T13:44:30.975Z,36.74
2022-08-28T13:46:58.123Z,35.47
2022-08-28T13:49:24.808Z,35.11
2022-08-28T13:51:51.446Z,38.19
2022-08-28T13:54:18.988Z,38.09
2022-08-28T13:56:46.427Z,36.76
2022-08-28T13:59:13.124Z,36.03
2022-08-28T14:01:58.316Z,34.83
2022-08-28T14:04:24.923Z,36.04
2022-08-28T14:06:51.448Z,37.78
2022-08-28T14:09:18.247Z,36.79
2022-08-28T14:11:48.104Z,38.46
2022-08-28T14:14:14.742Z,37.23
2022-08-28T14:16:41.329Z,35.27
2022-08-28T14:19:08.457Z,34.39
2022-08-28T14:21:36.314Z,35.54
2022-08-28T14:24:03.427Z,35.01
2022-08-28T14:26:30.416Z,32.93
2022-08-28T14:29:00.403Z,35.06
2022-08-28T14:31:27.727Z,36.36
2022-08-28T14:33:54.622Z,34.37
2022-08-28T14:36:23.016Z,34.22
2022-08-28T14:38:53.711Z,35.52
2022-08-28T14:41:21.067Z,38.30
2022-08-28T14:43:49.439Z,35.62
2022-08-28T14:46:17.211Z,35.83
2022-08-28T14:48:44.225Z,34.85
2022-08-28T14:51:10.969Z,33.10
2022-08-28T14:53:37.607Z,34.21
2022-08-28T14:56:06.032Z,36.33
2022-08-28T14:58:34.109Z,35.04
2022-08-28T15:01:01.274Z,34.37
2022-08-28T15:03:28.051Z,34.00
2022-08-28T15:06:24.021Z,34.77
2022-08-28T15:08:51.076Z,33.87
2022-08-28T15:11:19.270Z,33.64
2022-08-28T15:13:47.489Z,34.80
2022-08-28T15:16:18.221Z,34.34
2022-08-28T15:18:45.852Z,34.58
2022-08-28T15:21:16.741Z,35.73
2022-08-28T15:23:43.383Z,34.69
2022-08-28T15:26:15.160Z,35.71
2022-08-28T15:28:41.954Z,35.21
2022-08-28T15:31:08.545Z,35.05
2022-08-28T15:33:35.129Z,33.96
2022-08-28T15:36:01.695Z,33.28
2022-08-28T15:38:28.273Z,33.50
2022-08-28T15:41:13.387Z,33.58
2022-08-28T15:43:39.910Z,32.72
2022-08-28T15:46:14.212Z,33.22
2022-08-28T15:48:40.804Z,33.95
2022-08-28T15:51:08.020Z,34.70
2022-08-28T15:53:34.581Z,35.24
2022-08-28T15:56:02.510Z,35.96
2022-08-28T15:58:29.393Z,35.34
2022-08-28T16:00:55.954Z,35.93
2022-08-28T16:03:22.730Z,36.53
2022-08-28T16:05:52.222Z,36.98
2022-08-28T16:08:18.726Z,37.69
2022-08-28T16:10:49.417Z,38.99
2022-08-28T16:13:17.437Z,39.37
2022-08-28T16:15:44.853Z,39.13
2022-08-28T16:18:12.908Z,39.16
2022-08-28T16:20:41.233Z,41.42
2022-08-28T16:23:08.310Z,41.10
2022-08-28T16:25:35.669Z,41.95
2022-08-28T16:28:02.527Z,42.82
2022-08-28T16:30:29.063Z,43.04
2022-08-28T16:32:55.569Z,44.75
2022-08-28T16:35:22.240Z,45.72
2022-08-28T16:37:48.772Z,47.11
2022-08-28T16:40:15.413Z,48.41
2022-08-28T16:42:42.532Z,48.53
2022-08-28T16:45:18.127Z,49.43
2022-08-28T16:47:44.675Z,49.61
2022-08-28T16:50:12.107Z,50.00
2022-08-28T16:52:39.022Z,50.50
2022-08-28T16:55:07.266Z,50.93
2022-08-28T16:57:34.077Z,51.93
2022-08-28T17:00:00.711Z,51.94
2022-08-28T17:02:28.934Z,52.34
2022-08-28T17:04:55.672Z,53.48
2022-08-28T17:07:22.258Z,54.03
2022-08-28T17:09:48.759Z,54.50
2022-08-28T17:12:15.440Z,54.02
2022-08-28T17:14:42.538Z,55.30
2022-08-28T17:17:09.019Z,55.56
2022-08-28T17:19:36.909Z,56.13
2022-08-28T17:22:23.273Z,57.08
2022-08-28T17:24:53.661Z,58.51
2022-08-28T17:27:22.415Z,59.22
2022-08-28T17:29:49.490Z,60.99
2022-08-28T17:32:16.027Z,60.79
2022-08-28T17:34:42.554Z,60.51
2022-08-28T17:37:09.593Z,62.44
2022-08-28T17:39:36.163Z,62.63
2022-08-28T17:42:03.894Z,62.69
2022-08-28T17:44:30.695Z,63.41
2022-08-28T17:46:57.457Z,64.83
2022-08-28T17:49:24.031Z,64.46
2022-08-28T17:51:51.191Z,64.83
2022-08-28T17:54:21.453Z,64.82
2022-08-28T17:56:48.098Z,65.47
2022-08-28T17:59:15.163Z,65.90
2022-08-28T18:01:42.479Z,65.98
2022-08-28T18:04:09.238Z,66.51
2022-08-28T18:06:35.854Z,66.82
2022-08-28T18:09:02.394Z,67.42
2022-08-28T18:11:29.025Z,68.24
2022-08-28T18:13:55.714Z,67.51
2022-08-28T18:16:22.347Z,68.24
2022-08-28T18:18:49.004Z,69.15
2022-08-28T18:21:15.495Z,69.47
2022-08-28T18:23:42.368Z,69.49
2022-08-28T18:26:09.089Z,70.04
2022-08-28T18:28:35.970Z,70.36
2022-08-28T18:31:03.190Z,70.62
2022-08-28T18:33:29.755Z,71.35
2022-08-28T18:35:56.281Z,71.74
2022-08-28T18:38:25.869Z,71.77
2022-08-28T18:40:52.449Z,71.67
2022-08-28T18:43:20.323Z,71.62
2022-08-28T18:45:46.973Z,72.09
2022-08-28T18:48:14.108Z,72.40
2022-08-28T18:50:46.180Z,71.91
2022-08-28T18:53:13.844Z,72.31
2022-08-28T18:55:40.410Z,72.53
2022-08-28T18:58:07.099Z,72.61
2022-08-28T19:00:34.031Z,72.51
2022-08-28T19:03:01.055Z,73.14
2022-08-28T19:05:27.787Z,73.56
2022-08-28T19:07:54.372Z,73.61
2022-08-28T19:10:33.506Z,73.48
2022-08-28T19:13:01.150Z,73.99
2022-08-28T19:15:28.446Z,73.99
2022-08-28T19:17:55.606Z,74.93
2022-08-28T19:20:22.171Z,74.67
2022-08-28T19:22:49.117Z,74.58
2022-08-28T19:25:27.945Z,75.01
2022-08-28T19:27:56.258Z,75.18
2022-08-28T19:30:25.309Z,75.59
2022-08-28T19:32:51.973Z,75.19
2022-08-28T19:35:19.076Z,75.62
2022-08-28T19:37:45.892Z,76.24
2022-08-28T19:40:13.181Z,75.94
2022-08-28T19:42:42.604Z,74.99
2022-08-28T19:45:12.601Z,75.52
2022-08-28T19:47:40.154Z,75.61
2022-08-28T19:50:08.857Z,75.51
2022-08-28T19:52:38.349Z,74.94
2022-08-28T19:55:06.184Z,75.83
2022-08-28T19:57:33.131Z,76.11
2022-08-28T20:00:02.321Z,75.86
2022-08-28T20:02:29.666Z,76.08
2022-08-28T20:04:56.688Z,76.17
2022-08-28T20:07:24.990Z,76.11
2022-08-28T20:09:52.487Z,76.32
2022-08-28T20:12:19.500Z,76.34
2022-08-28T20:14:46.566Z,76.49
2022-08-28T20:17:13.989Z,76.18
2022-08-28T20:19:40.745Z,77.01
2022-08-28T20:22:07.361Z,76.64
2022-08-28T20:24:34.441Z,76.95
2022-08-28T20:27:01.000Z,77.19
2022-08-28T20:29:27.797Z,77.29
2022-08-28T20:31:54.354Z,77.46
2022-08-28T20:34:21.434Z,77.74
2022-08-28T20:36:48.367Z,78.91
2022-08-28T20:39:15.599Z,80.78
2022-08-28T20:41:43.020Z,81.84
2022-08-28T20:44:10.628Z,81.56
2022-08-28T20:46:41.392Z,81.36
2022-08-28T20:49:08.972Z,81.62
2022-08-28T20:51:53.461Z,82.02
2022-08-28T20:54:21.536Z,82.79
2022-08-28T20:56:48.741Z,84.19
2022-08-28T20:59:15.278Z,84.07
2022-08-28T21:01:41.858Z,84.67
2022-08-28T21:04:08.509Z,85.61
2022-08-28T21:06:35.259Z,85.13
2022-08-28T21:09:01.838Z,84.54
2022-08-28T21:11:29.446Z,85.32
2022-08-28T21:13:55.983Z,86.10
2022-08-28T21:16:22.579Z,86.72
2022-08-28T21:19:11.918Z,88.16
2022-08-28T21:21:36.189Z,88.79
2022-08-28T21:24:04.561Z,88.68
2022-08-28T21:26:31.184Z,88.03
2022-08-28T21:28:57.731Z,88.17
2022-08-28T21:31:24.623Z,88.14
2022-08-28T21:33:51.202Z,87.46
2022-08-28T21:36:18.315Z,85.82
2022-08-28T21:38:45.250Z,84.44
2022-08-28T21:41:12.855Z,85.23
2022-08-28T21:43:40.284Z,85.73
2022-08-28T21:46:07.290Z,87.16
2022-08-28T21:48:36.157Z,87.82
2022-08-28T21:51:05.386Z,88.69
2022-08-28T21:53:32.620Z,89.27
2022-08-28T21:55:59.111Z,89.86
2022-08-28T21:58:25.669Z,90.60
2022-08-28T22:00:53.842Z,91.36
2022-08-28T22:03:21.432Z,91.10
2022-08-28T22:05:48.890Z,91.78
2022-08-28T22:08:15.830Z,92.38
2022-08-28T22:10:43.423Z,93.31
2022-08-28T22:13:10.960Z,93.58
2022-08-28T22:15:39.653Z,93.43
2022-08-28T22:18:07.001Z,94.97
2022-08-28T22:20:34.325Z,95.92
2022-08-28T22:23:10.444Z,97.49
2022-08-28T22:25:41.569Z,98.13
2022-08-28T22:28:09.098Z,100.00
2022-08-28T22:30:35.600Z,100.00
2022-08-28T22:33:02.292Z,100.00
2022-08-28T22:35:29.367Z,100.00
2022-08-28T22:37:55.956Z,100.00
2022-08-28T22:40:22.577Z,100.00
2022-08-28T22:42:50.496Z,100.00
2022-08-28T22:45:17.742Z,100.00
2022-08-28T22:47:44.243Z,100.00
2022-08-28T22:50:10.988Z,100.00
2022-08-28T22:52:37.850Z,100.00
2022-08-28T22:55:08.013Z,100.00
2022-08-28T22:57:35.480Z,100.00
2022-08-28T23:00:04.042Z,100.00
2022-08-28T23:02:30.600Z,100.00
2022-08-28T23:04:57.365Z,100.00
2022-08-28T23:07:23.974Z,100.00
2022-08-28T23:09:50.464Z,100.00
2022-08-28T23:12:17.343Z,100.00
2022-08-28T23:14:48.244Z,100.00
2022-08-28T23:17:15.172Z,100.00
2022-08-28T23:19:43.469Z,100.00
2022-08-28T23:22:12.952Z,100.00
2022-08-28T23:24:39.517Z,100.00
2022-08-28T23:27:34.290Z,100.00
2022-08-28T23:29:54.659Z,100.00
2022-08-28T23:32:21.164Z,100.00
2022-08-28T23:34:47.943Z,100.00
2022-08-28T23:37:14.889Z,100.00
2022-08-28T23:39:41.416Z,100.00
2022-08-28T23:42:08.060Z,100.00
2022-08-28T23:44:35.036Z,100.00
2022-08-28T23:47:01.874Z,100.00
2022-08-28T23:49:29.280Z,100.00
2022-08-28T23:51:55.783Z,100.00
2022-08-28T23:54:22.327Z,100.00
2022-08-28T23:56:48.973Z,100.00
2022-08-28T23:59:21.176Z,100.00
